sensor_id;sensor_type;location;lat;lon;timestamp;P1;durP1;ratioP1;P2;durP2;ratioP2
22015;SDS011;64992;51.698;-0.292;2023-11-19T00:00:20;58.95;;;10.48;;
22015;SDS011;64992;51.698;-0.292;2023-11-19T00:02:46;49.28;;;10.02;;
22015;SDS011;64992;51.698;-0.292;2023-11-19T00:05:12;69.10;;;11.32;;
22015;SDS011;64992;51.698;-0.292;2023-11-19T00:07:39;62.08;;;10.13;;
22015;SDS011;64992;51.698;-0.292;2023-11-19T00:10:09;57.47;;;10.38;;
22015;SDS011;64992;51.698;-0.292;2023-11-19T00:12:39;68.65;;;11.57;;
22015;SDS011;64992;51.698;-0.292;2023-11-19T00:15:05;58.47;;;10.80;;
22015;SDS011;64992;51.698;-0.292;2023-11-19T00:17:37;47.70;;;9.40;;
22015;SDS011;64992;51.698;-0.292;2023-11-19T00:20:06;52.40;;;9.13;;
22015;SDS011;64992;51.698;-0.292;2023-11-19T00:22:33;46.80;;;9.48;;
22015;SDS011;64992;51.698;-0.292;2023-11-19T00:24:59;45.05;;;9.68;;
22015;SDS011;64992;51.698;-0.292;2023-11-19T00:27:25;49.67;;;9.73;;
22015;SDS011;64992;51.698;-0.292;2023-11-19T00:29:51;48.95;;;9.57;;
22015;SDS011;64992;51.698;-0.292;2023-11-19T00:32:17;49.00;;;8.00;;
22015;SDS011;64992;51.698;-0.292;2023-11-19T00:34:46;54.53;;;8.93;;
22015;SDS011;64992;51.698;-0.292;2023-11-19T00:37:13;53.28;;;8.23;;
22015;SDS011;64992;51.698;-0.292;2023-11-19T00:39:40;35.83;;;7.78;;
22015;SDS011;64992;51.698;-0.292;2023-11-19T00:42:06;35.30;;;7.78;;
22015;SDS011;64992;51.698;-0.292;2023-11-19T00:44:32;18.15;;;4.85;;
22015;SDS011;64992;51.698;-0.292;2023-11-19T00:46:58;55.90;;;10.32;;
22015;SDS011;64992;51.698;-0.292;2023-11-19T00:49:25;36.33;;;7.57;;
22015;SDS011;64992;51.698;-0.292;2023-11-19T00:51:51;33.92;;;7.80;;
22015;SDS011;64992;51.698;-0.292;2023-11-19T00:54:17;66.13;;;9.35;;
22015;SDS011;64992;51.698;-0.292;2023-11-19T00:56:43;33.78;;;7.82;;
22015;SDS011;64992;51.698;-0.292;2023-11-19T00:59:10;53.13;;;9.30;;
22015;SDS011;64992;51.698;-0.292;2023-11-19T01:01:36;53.67;;;8.35;;
22015;SDS011;64992;51.698;-0.292;2023-11-19T01:04:02;28.30;;;7.75;;
22015;SDS011;64992;51.698;-0.292;2023-11-19T01:06:28;35.50;;;8.70;;
22015;SDS011;64992;51.698;-0.292;2023-11-19T01:08:56;49.83;;;10.07;;
22015;SDS011;64992;51.698;-0.292;2023-11-19T01:11:22;50.97;;;7.47;;
22015;SDS011;64992;51.698;-0.292;2023-11-19T01:13:49;50.08;;;9.35;;
22015;SDS011;64992;51.698;-0.292;2023-11-19T01:16:15;41.33;;;9.65;;
22015;SDS011;64992;51.698;-0.292;2023-11-19T01:18:41;49.35;;;8.75;;
22015;SDS011;64992;51.698;-0.292;2023-11-19T01:21:07;34.65;;;7.05;;
22015;SDS011;64992;51.698;-0.292;2023-11-19T01:23:34;66.55;;;9.90;;
22015;SDS011;64992;51.698;-0.292;2023-11-19T01:26:00;42.60;;;7.90;;
22015;SDS011;64992;51.698;-0.292;2023-11-19T01:28:26;44.28;;;8.63;;
22015;SDS011;64992;51.698;-0.292;2023-11-19T01:30:52;52.33;;;8.00;;
22015;SDS011;64992;51.698;-0.292;2023-11-19T01:33:18;43.65;;;8.68;;
22015;SDS011;64992;51.698;-0.292;2023-11-19T01:35:44;60.63;;;9.15;;
22015;SDS011;64992;51.698;-0.292;2023-11-19T01:38:10;51.72;;;9.10;;
22015;SDS011;64992;51.698;-0.292;2023-11-19T01:40:37;31.25;;;6.68;;
22015;SDS011;64992;51.698;-0.292;2023-11-19T01:43:03;46.95;;;8.02;;
22015;SDS011;64992;51.698;-0.292;2023-11-19T01:45:29;64.57;;;9.95;;
22015;SDS011;64992;51.698;-0.292;2023-11-19T01:47:56;54.95;;;8.88;;
22015;SDS011;64992;51.698;-0.292;2023-11-19T01:50:23;36.22;;;6.75;;
22015;SDS011;64992;51.698;-0.292;2023-11-19T01:52:52;51.95;;;9.10;;
22015;SDS011;64992;51.698;-0.292;2023-11-19T01:55:19;69.38;;;8.40;;
22015;SDS011;64992;51.698;-0.292;2023-11-19T01:57:45;55.75;;;9.25;;
22015;SDS011;64992;51.698;-0.292;2023-11-19T02:00:12;51.15;;;7.95;;
22015;SDS011;64992;51.698;-0.292;2023-11-19T02:02:39;44.20;;;9.13;;
22015;SDS011;64992;51.698;-0.292;2023-11-19T02:05:05;58.42;;;8.85;;
22015;SDS011;64992;51.698;-0.292;2023-11-19T02:07:32;55.63;;;8.82;;
22015;SDS011;64992;51.698;-0.292;2023-11-19T02:09:58;57.83;;;8.10;;
22015;SDS011;64992;51.698;-0.292;2023-11-19T02:12:25;43.90;;;9.07;;
22015;SDS011;64992;51.698;-0.292;2023-11-19T02:14:53;40.17;;;9.02;;
22015;SDS011;64992;51.698;-0.292;2023-11-19T02:17:26;50.22;;;8.48;;
22015;SDS011;64992;51.698;-0.292;2023-11-19T02:19:52;47.13;;;8.13;;
22015;SDS011;64992;51.698;-0.292;2023-11-19T02:22:19;48.85;;;9.70;;
22015;SDS011;64992;51.698;-0.292;2023-11-19T02:24:46;42.30;;;7.05;;
22015;SDS011;64992;51.698;-0.292;2023-11-19T02:27:16;67.07;;;10.07;;
22015;SDS011;64992;51.698;-0.292;2023-11-19T02:29:45;43.23;;;7.77;;
22015;SDS011;64992;51.698;-0.292;2023-11-19T02:32:12;44.05;;;7.60;;
22015;SDS011;64992;51.698;-0.292;2023-11-19T02:34:38;50.58;;;8.25;;
22015;SDS011;64992;51.698;-0.292;2023-11-19T02:37:04;35.22;;;7.80;;
22015;SDS011;64992;51.698;-0.292;2023-11-19T02:39:31;38.78;;;7.47;;
22015;SDS011;64992;51.698;-0.292;2023-11-19T02:41:57;45.35;;;8.20;;
22015;SDS011;64992;51.698;-0.292;2023-11-19T02:44:23;37.67;;;6.80;;
22015;SDS011;64992;51.698;-0.292;2023-11-19T02:46:49;61.15;;;9.43;;
22015;SDS011;64992;51.698;-0.292;2023-11-19T02:49:15;40.75;;;7.00;;
22015;SDS011;64992;51.698;-0.292;2023-11-19T02:51:41;49.28;;;7.57;;
22015;SDS011;64992;51.698;-0.292;2023-11-19T02:54:08;43.00;;;7.70;;
22015;SDS011;64992;51.698;-0.292;2023-11-19T02:56:35;34.65;;;7.88;;
22015;SDS011;64992;51.698;-0.292;2023-11-19T02:59:02;46.55;;;8.27;;
22015;SDS011;64992;51.698;-0.292;2023-11-19T03:01:40;52.85;;;7.82;;
22015;SDS011;64992;51.698;-0.292;2023-11-19T03:04:08;42.65;;;8.40;;
22015;SDS011;64992;51.698;-0.292;2023-11-19T03:06:37;37.17;;;8.65;;
22015;SDS011;64992;51.698;-0.292;2023-11-19T03:09:03;53.72;;;8.18;;
22015;SDS011;64992;51.698;-0.292;2023-11-19T03:11:35;24.48;;;5.93;;
22015;SDS011;64992;51.698;-0.292;2023-11-19T03:14:01;37.22;;;7.93;;
22015;SDS011;64992;51.698;-0.292;2023-11-19T03:16:28;36.63;;;7.72;;
22015;SDS011;64992;51.698;-0.292;2023-11-19T03:18:54;44.25;;;7.75;;
22015;SDS011;64992;51.698;-0.292;2023-11-19T03:21:30;36.30;;;7.38;;
22015;SDS011;64992;51.698;-0.292;2023-11-19T03:23:56;56.60;;;7.82;;
22015;SDS011;64992;51.698;-0.292;2023-11-19T03:26:25;43.00;;;8.82;;
22015;SDS011;64992;51.698;-0.292;2023-11-19T03:28:52;45.10;;;7.72;;
22015;SDS011;64992;51.698;-0.292;2023-11-19T03:31:18;44.95;;;7.85;;
22015;SDS011;64992;51.698;-0.292;2023-11-19T03:33:45;34.47;;;7.40;;
22015;SDS011;64992;51.698;-0.292;2023-11-19T03:36:11;35.72;;;7.30;;
22015;SDS011;64992;51.698;-0.292;2023-11-19T03:38:37;34.58;;;7.43;;
22015;SDS011;64992;51.698;-0.292;2023-11-19T03:41:10;46.17;;;7.95;;
22015;SDS011;64992;51.698;-0.292;2023-11-19T03:43:37;42.17;;;8.15;;
22015;SDS011;64992;51.698;-0.292;2023-11-19T03:46:03;48.22;;;7.32;;
22015;SDS011;64992;51.698;-0.292;2023-11-19T03:48:30;39.45;;;7.45;;
22015;SDS011;64992;51.698;-0.292;2023-11-19T03:50:57;41.80;;;8.20;;
22015;SDS011;64992;51.698;-0.292;2023-11-19T03:53:23;25.52;;;6.28;;
22015;SDS011;64992;51.698;-0.292;2023-11-19T03:55:49;31.98;;;7.63;;
22015;SDS011;64992;51.698;-0.292;2023-11-19T03:58:16;51.72;;;7.60;;
22015;SDS011;64992;51.698;-0.292;2023-11-19T04:00:42;46.35;;;7.32;;
22015;SDS011;64992;51.698;-0.292;2023-11-19T04:03:08;36.13;;;7.35;;
22015;SDS011;64992;51.698;-0.292;2023-11-19T04:05:34;31.77;;;6.20;;
22015;SDS011;64992;51.698;-0.292;2023-11-19T04:08:00;26.17;;;6.05;;
22015;SDS011;64992;51.698;-0.292;2023-11-19T04:10:27;32.20;;;5.72;;
22015;SDS011;64992;51.698;-0.292;2023-11-19T04:12:53;29.60;;;5.93;;
22015;SDS011;64992;51.698;-0.292;2023-11-19T04:15:19;28.13;;;5.47;;
22015;SDS011;64992;51.698;-0.292;2023-11-19T04:17:45;49.55;;;8.85;;
22015;SDS011;64992;51.698;-0.292;2023-11-19T04:20:11;30.50;;;7.10;;
22015;SDS011;64992;51.698;-0.292;2023-11-19T04:22:38;49.33;;;8.15;;
22015;SDS011;64992;51.698;-0.292;2023-11-19T04:25:05;37.17;;;7.15;;
22015;SDS011;64992;51.698;-0.292;2023-11-19T04:27:32;34.85;;;8.07;;
22015;SDS011;64992;51.698;-0.292;2023-11-19T04:29:58;29.23;;;6.40;;
22015;SDS011;64992;51.698;-0.292;2023-11-19T04:32:26;43.47;;;7.70;;
22015;SDS011;64992;51.698;-0.292;2023-11-19T04:34:52;57.88;;;7.82;;
22015;SDS011;64992;51.698;-0.292;2023-11-19T04:37:18;47.08;;;9.15;;
22015;SDS011;64992;51.698;-0.292;2023-11-19T04:39:44;37.50;;;8.23;;
22015;SDS011;64992;51.698;-0.292;2023-11-19T04:42:11;35.17;;;7.85;;
22015;SDS011;64992;51.698;-0.292;2023-11-19T04:44:37;35.97;;;7.65;;
22015;SDS011;64992;51.698;-0.292;2023-11-19T04:47:03;47.35;;;9.73;;
22015;SDS011;64992;51.698;-0.292;2023-11-19T04:49:31;53.95;;;9.85;;
22015;SDS011;64992;51.698;-0.292;2023-11-19T04:51:57;43.05;;;7.32;;
22015;SDS011;64992;51.698;-0.292;2023-11-19T04:54:23;32.03;;;6.57;;
22015;SDS011;64992;51.698;-0.292;2023-11-19T04:56:49;56.45;;;8.45;;
22015;SDS011;64992;51.698;-0.292;2023-11-19T04:59:16;32.95;;;6.35;;
22015;SDS011;64992;51.698;-0.292;2023-11-19T05:01:46;40.22;;;7.70;;
22015;SDS011;64992;51.698;-0.292;2023-11-19T05:04:13;54.72;;;7.70;;
22015;SDS011;64992;51.698;-0.292;2023-11-19T05:06:39;44.13;;;6.53;;
22015;SDS011;64992;51.698;-0.292;2023-11-19T05:09:05;30.25;;;5.18;;
22015;SDS011;64992;51.698;-0.292;2023-11-19T05:11:34;37.33;;;8.60;;
22015;SDS011;64992;51.698;-0.292;2023-11-19T05:14:03;35.08;;;6.85;;
22015;SDS011;64992;51.698;-0.292;2023-11-19T05:16:30;30.38;;;7.32;;
22015;SDS011;64992;51.698;-0.292;2023-11-19T05:18:56;44.20;;;7.35;;
22015;SDS011;64992;51.698;-0.292;2023-11-19T05:21:22;38.88;;;7.90;;
22015;SDS011;64992;51.698;-0.292;2023-11-19T05:23:48;35.65;;;6.38;;
22015;SDS011;64992;51.698;-0.292;2023-11-19T05:26:21;33.15;;;7.88;;
22015;SDS011;64992;51.698;-0.292;2023-11-19T05:28:47;23.25;;;5.97;;
22015;SDS011;64992;51.698;-0.292;2023-11-19T05:31:14;34.40;;;7.55;;
22015;SDS011;64992;51.698;-0.292;2023-11-19T05:33:40;40.33;;;7.75;;
22015;SDS011;64992;51.698;-0.292;2023-11-19T05:36:06;32.60;;;7.25;;
22015;SDS011;64992;51.698;-0.292;2023-11-19T05:38:33;31.33;;;7.68;;
22015;SDS011;64992;51.698;-0.292;2023-11-19T05:40:59;38.78;;;7.05;;
22015;SDS011;64992;51.698;-0.292;2023-11-19T05:43:25;39.65;;;7.40;;
22015;SDS011;64992;51.698;-0.292;2023-11-19T05:45:51;40.85;;;8.50;;
22015;SDS011;64992;51.698;-0.292;2023-11-19T05:48:17;37.30;;;7.35;;
22015;SDS011;64992;51.698;-0.292;2023-11-19T05:50:43;33.78;;;7.00;;
22015;SDS011;64992;51.698;-0.292;2023-11-19T05:53:10;41.22;;;7.97;;
22015;SDS011;64992;51.698;-0.292;2023-11-19T05:55:38;43.80;;;7.63;;
22015;SDS011;64992;51.698;-0.292;2023-11-19T05:58:24;22.15;;;5.03;;
22015;SDS011;64992;51.698;-0.292;2023-11-19T06:00:51;38.85;;;7.95;;
22015;SDS011;64992;51.698;-0.292;2023-11-19T06:03:17;17.75;;;4.85;;
22015;SDS011;64992;51.698;-0.292;2023-11-19T06:05:49;39.05;;;7.97;;
22015;SDS011;64992;51.698;-0.292;2023-11-19T06:08:16;41.08;;;7.65;;
22015;SDS011;64992;51.698;-0.292;2023-11-19T06:10:42;44.10;;;7.70;;
22015;SDS011;64992;51.698;-0.292;2023-11-19T06:13:11;30.55;;;7.07;;
22015;SDS011;64992;51.698;-0.292;2023-11-19T06:15:37;43.33;;;7.93;;
22015;SDS011;64992;51.698;-0.292;2023-11-19T06:18:03;45.33;;;7.07;;
22015;SDS011;64992;51.698;-0.292;2023-11-19T06:20:30;39.72;;;7.25;;
22015;SDS011;64992;51.698;-0.292;2023-11-19T06:22:57;36.03;;;7.15;;
22015;SDS011;64992;51.698;-0.292;2023-11-19T06:25:23;24.08;;;5.90;;
22015;SDS011;64992;51.698;-0.292;2023-11-19T06:27:50;54.58;;;8.18;;
22015;SDS011;64992;51.698;-0.292;2023-11-19T06:30:16;36.95;;;6.70;;
22015;SDS011;64992;51.698;-0.292;2023-11-19T06:32:42;25.50;;;6.35;;
22015;SDS011;64992;51.698;-0.292;2023-11-19T06:35:08;39.65;;;6.30;;
22015;SDS011;64992;51.698;-0.292;2023-11-19T06:37:35;26.50;;;5.57;;
22015;SDS011;64992;51.698;-0.292;2023-11-19T06:40:01;34.17;;;6.88;;
22015;SDS011;64992;51.698;-0.292;2023-11-19T06:42:30;31.25;;;5.75;;
22015;SDS011;64992;51.698;-0.292;2023-11-19T06:44:56;37.63;;;7.28;;
22015;SDS011;64992;51.698;-0.292;2023-11-19T06:47:25;25.05;;;4.63;;
22015;SDS011;64992;51.698;-0.292;2023-11-19T06:49:52;33.95;;;6.18;;
22015;SDS011;64992;51.698;-0.292;2023-11-19T06:52:18;35.45;;;8.15;;
22015;SDS011;64992;51.698;-0.292;2023-11-19T06:54:44;46.60;;;6.57;;
22015;SDS011;64992;51.698;-0.292;2023-11-19T06:57:13;40.72;;;5.60;;
22015;SDS011;64992;51.698;-0.292;2023-11-19T06:59:40;28.67;;;6.60;;
22015;SDS011;64992;51.698;-0.292;2023-11-19T07:02:06;37.17;;;6.65;;
22015;SDS011;64992;51.698;-0.292;2023-11-19T07:04:32;34.28;;;7.22;;
22015;SDS011;64992;51.698;-0.292;2023-11-19T07:06:59;31.65;;;5.22;;
22015;SDS011;64992;51.698;-0.292;2023-11-19T07:09:25;23.73;;;5.90;;
22015;SDS011;64992;51.698;-0.292;2023-11-19T07:11:52;29.88;;;6.95;;
22015;SDS011;64992;51.698;-0.292;2023-11-19T07:14:18;30.73;;;5.55;;
22015;SDS011;64992;51.698;-0.292;2023-11-19T07:16:46;44.45;;;6.88;;
22015;SDS011;64992;51.698;-0.292;2023-11-19T07:19:12;36.67;;;6.35;;
22015;SDS011;64992;51.698;-0.292;2023-11-19T07:21:41;34.50;;;6.30;;
22015;SDS011;64992;51.698;-0.292;2023-11-19T07:24:09;23.55;;;6.90;;
22015;SDS011;64992;51.698;-0.292;2023-11-19T07:26:40;40.55;;;7.40;;
22015;SDS011;64992;51.698;-0.292;2023-11-19T07:29:06;43.33;;;7.45;;
22015;SDS011;64992;51.698;-0.292;2023-11-19T07:31:32;36.33;;;6.97;;
22015;SDS011;64992;51.698;-0.292;2023-11-19T07:33:58;32.00;;;6.13;;
22015;SDS011;64992;51.698;-0.292;2023-11-19T07:36:24;38.65;;;5.95;;
22015;SDS011;64992;51.698;-0.292;2023-11-19T07:38:51;32.05;;;6.55;;
22015;SDS011;64992;51.698;-0.292;2023-11-19T07:41:17;30.92;;;6.32;;
22015;SDS011;64992;51.698;-0.292;2023-11-19T07:43:43;30.70;;;6.05;;
22015;SDS011;64992;51.698;-0.292;2023-11-19T07:46:13;28.50;;;6.43;;
22015;SDS011;64992;51.698;-0.292;2023-11-19T07:48:39;32.30;;;6.63;;
22015;SDS011;64992;51.698;-0.292;2023-11-19T07:51:07;24.52;;;5.78;;
22015;SDS011;64992;51.698;-0.292;2023-11-19T07:53:33;38.28;;;7.10;;
22015;SDS011;64992;51.698;-0.292;2023-11-19T07:55:59;25.77;;;6.07;;
22015;SDS011;64992;51.698;-0.292;2023-11-19T07:58:25;34.83;;;6.60;;
22015;SDS011;64992;51.698;-0.292;2023-11-19T08:00:52;29.15;;;5.70;;
22015;SDS011;64992;51.698;-0.292;2023-11-19T08:03:18;19.75;;;5.00;;
22015;SDS011;64992;51.698;-0.292;2023-11-19T08:05:44;32.78;;;6.57;;
22015;SDS011;64992;51.698;-0.292;2023-11-19T08:08:11;15.32;;;4.68;;
22015;SDS011;64992;51.698;-0.292;2023-11-19T08:10:37;36.80;;;6.80;;
22015;SDS011;64992;51.698;-0.292;2023-11-19T08:13:05;35.65;;;5.55;;
22015;SDS011;64992;51.698;-0.292;2023-11-19T08:15:31;28.20;;;5.80;;
22015;SDS011;64992;51.698;-0.292;2023-11-19T08:17:57;23.95;;;4.53;;
22015;SDS011;64992;51.698;-0.292;2023-11-19T08:20:23;19.60;;;4.63;;
22015;SDS011;64992;51.698;-0.292;2023-11-19T08:22:49;22.35;;;4.32;;
22015;SDS011;64992;51.698;-0.292;2023-11-19T08:25:15;23.10;;;4.50;;
22015;SDS011;64992;51.698;-0.292;2023-11-19T08:27:41;23.95;;;5.50;;
22015;SDS011;64992;51.698;-0.292;2023-11-19T08:30:08;31.00;;;5.95;;
22015;SDS011;64992;51.698;-0.292;2023-11-19T08:32:34;30.73;;;5.05;;
22015;SDS011;64992;51.698;-0.292;2023-11-19T08:35:01;18.80;;;5.10;;
22015;SDS011;64992;51.698;-0.292;2023-11-19T08:37:27;30.88;;;4.70;;
22015;SDS011;64992;51.698;-0.292;2023-11-19T08:39:53;19.02;;;4.25;;
22015;SDS011;64992;51.698;-0.292;2023-11-19T08:42:19;25.20;;;4.95;;
22015;SDS011;64992;51.698;-0.292;2023-11-19T08:44:50;30.73;;;6.15;;
22015;SDS011;64992;51.698;-0.292;2023-11-19T08:47:19;22.92;;;5.57;;
22015;SDS011;64992;51.698;-0.292;2023-11-19T08:49:47;20.38;;;4.65;;
22015;SDS011;64992;51.698;-0.292;2023-11-19T08:52:13;19.35;;;5.15;;
22015;SDS011;64992;51.698;-0.292;2023-11-19T08:54:42;20.17;;;5.60;;
22015;SDS011;64992;51.698;-0.292;2023-11-19T08:57:08;25.25;;;5.60;;
22015;SDS011;64992;51.698;-0.292;2023-11-19T08:59:34;17.50;;;4.97;;
22015;SDS011;64992;51.698;-0.292;2023-11-19T09:02:02;21.45;;;4.65;;
22015;SDS011;64992;51.698;-0.292;2023-11-19T09:04:28;22.23;;;4.75;;
22015;SDS011;64992;51.698;-0.292;2023-11-19T09:06:54;20.48;;;4.55;;
22015;SDS011;64992;51.698;-0.292;2023-11-19T09:09:20;22.92;;;4.93;;
22015;SDS011;64992;51.698;-0.292;2023-11-19T09:11:46;28.75;;;5.95;;
22015;SDS011;64992;51.698;-0.292;2023-11-19T09:14:12;22.20;;;4.88;;
22015;SDS011;64992;51.698;-0.292;2023-11-19T09:16:38;19.27;;;4.38;;
22015;SDS011;64992;51.698;-0.292;2023-11-19T09:19:05;16.73;;;3.53;;
22015;SDS011;64992;51.698;-0.292;2023-11-19T09:21:31;17.33;;;4.68;;
22015;SDS011;64992;51.698;-0.292;2023-11-19T09:23:57;20.05;;;4.28;;
22015;SDS011;64992;51.698;-0.292;2023-11-19T09:26:23;18.65;;;4.15;;
22015;SDS011;64992;51.698;-0.292;2023-11-19T09:28:49;20.10;;;3.80;;
22015;SDS011;64992;51.698;-0.292;2023-11-19T09:31:16;23.10;;;5.20;;
22015;SDS011;64992;51.698;-0.292;2023-11-19T09:33:42;22.55;;;4.88;;
22015;SDS011;64992;51.698;-0.292;2023-11-19T09:36:09;22.83;;;3.97;;
22015;SDS011;64992;51.698;-0.292;2023-11-19T09:38:37;28.25;;;4.60;;
22015;SDS011;64992;51.698;-0.292;2023-11-19T09:41:04;21.38;;;4.68;;
22015;SDS011;64992;51.698;-0.292;2023-11-19T09:43:33;18.52;;;5.05;;
22015;SDS011;64992;51.698;-0.292;2023-11-19T09:46:04;19.80;;;5.30;;
22015;SDS011;64992;51.698;-0.292;2023-11-19T09:48:32;26.10;;;5.15;;
22015;SDS011;64992;51.698;-0.292;2023-11-19T09:50:59;21.38;;;5.22;;
22015;SDS011;64992;51.698;-0.292;2023-11-19T09:53:26;21.00;;;5.05;;
22015;SDS011;64992;51.698;-0.292;2023-11-19T09:55:52;17.42;;;4.13;;
22015;SDS011;64992;51.698;-0.292;2023-11-19T09:58:19;19.58;;;4.13;;
22015;SDS011;64992;51.698;-0.292;2023-11-19T10:00:45;28.63;;;5.90;;
22015;SDS011;64992;51.698;-0.292;2023-11-19T10:03:11;19.73;;;5.03;;
22015;SDS011;64992;51.698;-0.292;2023-11-19T10:05:38;19.85;;;3.83;;
22015;SDS011;64992;51.698;-0.292;2023-11-19T10:08:05;24.52;;;4.38;;
22015;SDS011;64992;51.698;-0.292;2023-11-19T10:10:32;16.60;;;5.28;;
22015;SDS011;64992;51.698;-0.292;2023-11-19T10:12:58;15.90;;;4.45;;
22015;SDS011;64992;51.698;-0.292;2023-11-19T10:15:25;18.65;;;5.00;;
22015;SDS011;64992;51.698;-0.292;2023-11-19T10:17:58;21.88;;;4.25;;
22015;SDS011;64992;51.698;-0.292;2023-11-19T10:20:24;29.25;;;5.68;;
22015;SDS011;64992;51.698;-0.292;2023-11-19T10:22:53;13.10;;;3.92;;
22015;SDS011;64992;51.698;-0.292;2023-11-19T10:25:26;14.20;;;3.58;;
22015;SDS011;64992;51.698;-0.292;2023-11-19T10:27:56;19.47;;;4.50;;
22015;SDS011;64992;51.698;-0.292;2023-11-19T10:30:22;22.98;;;5.38;;
22015;SDS011;64992;51.698;-0.292;2023-11-19T10:35:31;15.65;;;4.88;;
22015;SDS011;64992;51.698;-0.292;2023-11-19T10:38:13;20.67;;;4.28;;
22015;SDS011;64992;51.698;-0.292;2023-11-19T10:40:40;22.53;;;4.67;;
22015;SDS011;64992;51.698;-0.292;2023-11-19T10:43:08;24.58;;;4.97;;
22015;SDS011;64992;51.698;-0.292;2023-11-19T10:45:35;21.20;;;3.85;;
22015;SDS011;64992;51.698;-0.292;2023-11-19T10:48:02;15.50;;;4.38;;
22015;SDS011;64992;51.698;-0.292;2023-11-19T10:50:31;27.48;;;5.88;;
22015;SDS011;64992;51.698;-0.292;2023-11-19T10:52:57;33.22;;;4.68;;
22015;SDS011;64992;51.698;-0.292;2023-11-19T10:55:28;19.35;;;4.80;;
22015;SDS011;64992;51.698;-0.292;2023-11-19T10:57:58;18.05;;;5.03;;
22015;SDS011;64992;51.698;-0.292;2023-11-19T11:00:25;21.30;;;4.90;;
22015;SDS011;64992;51.698;-0.292;2023-11-19T11:02:54;28.30;;;5.30;;
22015;SDS011;64992;51.698;-0.292;2023-11-19T11:05:21;23.60;;;5.05;;
22015;SDS011;64992;51.698;-0.292;2023-11-19T11:07:47;12.00;;;4.03;;
22015;SDS011;64992;51.698;-0.292;2023-11-19T11:10:16;23.50;;;4.22;;
22015;SDS011;64992;51.698;-0.292;2023-11-19T11:12:42;24.73;;;4.72;;
22015;SDS011;64992;51.698;-0.292;2023-11-19T11:15:10;15.48;;;3.75;;
22015;SDS011;64992;51.698;-0.292;2023-11-19T11:17:38;19.60;;;5.05;;
22015;SDS011;64992;51.698;-0.292;2023-11-19T11:20:05;20.75;;;4.57;;
22015;SDS011;64992;51.698;-0.292;2023-11-19T11:22:33;16.77;;;3.67;;
22015;SDS011;64992;51.698;-0.292;2023-11-19T11:25:08;14.80;;;4.35;;
22015;SDS011;64992;51.698;-0.292;2023-11-19T11:27:48;19.38;;;4.18;;
22015;SDS011;64992;51.698;-0.292;2023-11-19T11:35:50;15.27;;;3.95;;
22015;SDS011;64992;51.698;-0.292;2023-11-19T11:38:13;11.52;;;3.22;;
22015;SDS011;64992;51.698;-0.292;2023-11-19T11:40:40;14.10;;;3.22;;
22015;SDS011;64992;51.698;-0.292;2023-11-19T11:45:52;18.30;;;3.72;;
22015;SDS011;64992;51.698;-0.292;2023-11-19T11:48:19;16.33;;;3.58;;
22015;SDS011;64992;51.698;-0.292;2023-11-19T11:50:52;13.70;;;4.28;;
22015;SDS011;64992;51.698;-0.292;2023-11-19T11:53:19;10.98;;;3.60;;
22015;SDS011;64992;51.698;-0.292;2023-11-19T11:58:17;15.60;;;3.70;;
22015;SDS011;64992;51.698;-0.292;2023-11-19T12:00:43;19.95;;;3.20;;
22015;SDS011;64992;51.698;-0.292;2023-11-19T12:03:10;14.70;;;2.75;;
22015;SDS011;64992;51.698;-0.292;2023-11-19T12:05:44;12.73;;;3.97;;
22015;SDS011;64992;51.698;-0.292;2023-11-19T12:08:10;13.07;;;3.10;;
22015;SDS011;64992;51.698;-0.292;2023-11-19T12:10:38;12.32;;;3.00;;
22015;SDS011;64992;51.698;-0.292;2023-11-19T12:13:08;15.35;;;3.17;;
22015;SDS011;64992;51.698;-0.292;2023-11-19T12:18:31;12.77;;;3.17;;
22015;SDS011;64992;51.698;-0.292;2023-11-19T12:20:58;12.73;;;3.38;;
22015;SDS011;64992;51.698;-0.292;2023-11-19T12:23:28;10.20;;;3.33;;
22015;SDS011;64992;51.698;-0.292;2023-11-19T12:25:55;11.35;;;2.65;;
22015;SDS011;64992;51.698;-0.292;2023-11-19T12:28:23;8.77;;;2.63;;
22015;SDS011;64992;51.698;-0.292;2023-11-19T12:30:51;18.08;;;3.30;;
22015;SDS011;64992;51.698;-0.292;2023-11-19T12:33:18;9.25;;;2.58;;
22015;SDS011;64992;51.698;-0.292;2023-11-19T12:35:45;15.30;;;3.25;;
22015;SDS011;64992;51.698;-0.292;2023-11-19T12:38:21;5.72;;;2.95;;
22015;SDS011;64992;51.698;-0.292;2023-11-19T12:40:47;17.60;;;3.10;;
22015;SDS011;64992;51.698;-0.292;2023-11-19T12:43:22;9.55;;;2.25;;
22015;SDS011;64992;51.698;-0.292;2023-11-19T12:45:48;14.85;;;3.80;;
22015;SDS011;64992;51.698;-0.292;2023-11-19T12:48:15;14.88;;;3.08;;
22015;SDS011;64992;51.698;-0.292;2023-11-19T12:50:54;12.15;;;3.13;;
22015;SDS011;64992;51.698;-0.292;2023-11-19T12:53:21;7.20;;;2.50;;
22015;SDS011;64992;51.698;-0.292;2023-11-19T12:55:48;14.00;;;3.15;;
22015;SDS011;64992;51.698;-0.292;2023-11-19T12:58:33;10.25;;;2.85;;
22015;SDS011;64992;51.698;-0.292;2023-11-19T13:01:03;14.88;;;3.58;;
22015;SDS011;64992;51.698;-0.292;2023-11-19T13:03:33;13.38;;;3.17;;
22015;SDS011;64992;51.698;-0.292;2023-11-19T13:06:03;13.85;;;2.83;;
22015;SDS011;64992;51.698;-0.292;2023-11-19T13:08:51;9.50;;;2.53;;
22015;SDS011;64992;51.698;-0.292;2023-11-19T13:11:35;17.55;;;3.15;;
22015;SDS011;64992;51.698;-0.292;2023-11-19T13:14:05;9.07;;;2.95;;
22015;SDS011;64992;51.698;-0.292;2023-11-19T13:16:33;11.60;;;2.58;;
22015;SDS011;64992;51.698;-0.292;2023-11-19T13:19:00;7.45;;;2.47;;
22015;SDS011;64992;51.698;-0.292;2023-11-19T13:21:26;9.18;;;2.42;;
22015;SDS011;64992;51.698;-0.292;2023-11-19T13:23:52;11.82;;;2.60;;
22015;SDS011;64992;51.698;-0.292;2023-11-19T13:26:18;14.18;;;2.30;;
22015;SDS011;64992;51.698;-0.292;2023-11-19T13:28:44;7.47;;;2.45;;
22015;SDS011;64992;51.698;-0.292;2023-11-19T13:31:11;8.80;;;1.80;;
22015;SDS011;64992;51.698;-0.292;2023-11-19T13:33:37;8.82;;;2.35;;
22015;SDS011;64992;51.698;-0.292;2023-11-19T13:36:03;6.88;;;2.10;;
22015;SDS011;64992;51.698;-0.292;2023-11-19T13:38:35;3.13;;;1.92;;
22015;SDS011;64992;51.698;-0.292;2023-11-19T13:41:02;8.23;;;1.80;;
22015;SDS011;64992;51.698;-0.292;2023-11-19T13:43:29;6.63;;;1.70;;
22015;SDS011;64992;51.698;-0.292;2023-11-19T13:45:56;12.65;;;2.15;;
22015;SDS011;64992;51.698;-0.292;2023-11-19T13:48:23;12.38;;;2.33;;
22015;SDS011;64992;51.698;-0.292;2023-11-19T13:50:50;5.97;;;1.60;;
22015;SDS011;64992;51.698;-0.292;2023-11-19T13:53:16;5.70;;;1.80;;
22015;SDS011;64992;51.698;-0.292;2023-11-19T13:55:42;3.97;;;2.10;;
22015;SDS011;64992;51.698;-0.292;2023-11-19T13:58:09;9.35;;;1.80;;
22015;SDS011;64992;51.698;-0.292;2023-11-19T14:00:35;5.70;;;1.90;;
22015;SDS011;64992;51.698;-0.292;2023-11-19T14:03:02;9.23;;;2.05;;
22015;SDS011;64992;51.698;-0.292;2023-11-19T14:05:28;10.63;;;2.15;;
22015;SDS011;64992;51.698;-0.292;2023-11-19T14:07:54;3.60;;;1.45;;
22015;SDS011;64992;51.698;-0.292;2023-11-19T14:10:21;5.43;;;1.95;;
22015;SDS011;64992;51.698;-0.292;2023-11-19T14:12:48;8.43;;;1.98;;
22015;SDS011;64992;51.698;-0.292;2023-11-19T14:15:17;9.20;;;1.80;;
22015;SDS011;64992;51.698;-0.292;2023-11-19T14:17:43;10.55;;;1.85;;
22015;SDS011;64992;51.698;-0.292;2023-11-19T14:20:09;2.08;;;1.35;;
22015;SDS011;64992;51.698;-0.292;2023-11-19T14:22:41;9.27;;;1.92;;
22015;SDS011;64992;51.698;-0.292;2023-11-19T14:25:08;7.82;;;1.65;;
22015;SDS011;64992;51.698;-0.292;2023-11-19T14:27:42;10.40;;;1.92;;
22015;SDS011;64992;51.698;-0.292;2023-11-19T14:30:09;3.40;;;1.20;;
22015;SDS011;64992;51.698;-0.292;2023-11-19T14:32:42;5.97;;;1.58;;
22015;SDS011;64992;51.698;-0.292;2023-11-19T14:35:09;8.30;;;1.50;;
22015;SDS011;64992;51.698;-0.292;2023-11-19T14:37:35;9.35;;;1.75;;
22015;SDS011;64992;51.698;-0.292;2023-11-19T14:40:02;3.35;;;1.98;;